createdAt,value
2023-03-29T00:02:30.711Z,2.55
2023-03-29T00:05:05.896Z,2.30
2023-03-29T00:07:33.679Z,2.08
2023-03-29T00:10:04.835Z,2.38
2023-03-29T00:12:36.557Z,2.40
2023-03-29T00:15:11.291Z,2.08
2023-03-29T00:17:38.561Z,2.25
2023-03-29T00:20:10.481Z,2.42
2023-03-29T00:22:40.138Z,2.20
2023-03-29T00:25:08.311Z,2.28
2023-03-29T00:27:35.945Z,2.38
2023-03-29T00:30:07.331Z,2.28
2023-03-29T00:32:35.897Z,2.28
2023-03-29T00:35:05.987Z,2.25
2023-03-29T00:37:33.970Z,1.85
2023-03-29T00:40:05.055Z,2.10
2023-03-29T00:42:35.133Z,2.28
2023-03-29T00:45:08.885Z,1.77
2023-03-29T00:47:42.305Z,2.67
2023-03-29T00:50:17.471Z,2.67
2023-03-29T00:52:48.741Z,2.03
2023-03-29T00:55:19.506Z,2.38
2023-03-29T00:57:47.362Z,2.17
2023-03-29T01:00:18.713Z,2.40
2023-03-29T01:02:54.662Z,2.17
2023-03-29T01:05:25.972Z,1.95
2023-03-29T01:07:58.944Z,2.30
2023-03-29T01:10:42.726Z,2.10
2023-03-29T01:13:16.223Z,2.20
2023-03-29T01:15:46.852Z,2.25
2023-03-29T01:18:15.541Z,1.92
2023-03-29T01:21:05.169Z,2.47
2023-03-29T01:23:58.763Z,1.77
2023-03-29T01:26:36.363Z,2.50
2023-03-29T01:29:12.510Z,2.45
2023-03-29T01:31:45.353Z,2.63
2023-03-29T01:34:19.870Z,2.50
2023-03-29T01:36:51.406Z,2.40
2023-03-29T01:39:19.486Z,2.40
2023-03-29T01:41:56.747Z,2.08
2023-03-29T01:44:31.793Z,2.45
2023-03-29T01:47:08.684Z,3.15
2023-03-29T01:49:42.752Z,2.65
2023-03-29T01:52:16.041Z,3.03
2023-03-29T01:54:50.086Z,2.78
2023-03-29T01:57:19.850Z,2.85
2023-03-29T01:59:50.052Z,2.72
2023-03-29T02:02:19.305Z,2.42
2023-03-29T02:04:53.334Z,2.78
2023-03-29T02:07:24.889Z,3.00
2023-03-29T02:09:54.461Z,2.63
2023-03-29T02:12:22.259Z,2.22
2023-03-29T02:14:51.100Z,2.53
2023-03-29T02:17:22.851Z,3.00
2023-03-29T02:19:58.057Z,2.75
2023-03-29T02:22:29.793Z,2.60
2023-03-29T02:25:11.652Z,2.80
2023-03-29T02:27:39.571Z,3.03
2023-03-29T02:30:12.960Z,2.88
2023-03-29T02:32:49.512Z,2.70
2023-03-29T02:35:22.182Z,2.67
2023-03-29T02:37:54.598Z,2.58
2023-03-29T02:40:23.632Z,2.45
2023-03-29T02:42:50.849Z,2.75
2023-03-29T02:45:19.921Z,3.40
2023-03-29T02:47:53.067Z,2.58
2023-03-29T02:50:21.622Z,2.67
2023-03-29T02:52:53.639Z,2.70
2023-03-29T02:55:25.612Z,2.92
2023-03-29T02:57:52.602Z,2.75
2023-03-29T03:00:23.236Z,3.05
2023-03-29T03:02:53.215Z,3.08
2023-03-29T03:05:23.987Z,3.25
2023-03-29T03:07:51.963Z,2.88
2023-03-29T03:10:19.288Z,3.00
2023-03-29T03:12:46.648Z,3.28
2023-03-29T03:15:13.606Z,2.67
2023-03-29T03:17:42.364Z,3.05
2023-03-29T03:20:14.013Z,2.70
2023-03-29T03:22:45.711Z,2.97
2023-03-29T03:25:15.083Z,3.22
2023-03-29T03:27:45.115Z,3.10
2023-03-29T03:30:16.140Z,2.70
2023-03-29T03:32:44.976Z,3.42
2023-03-29T03:35:13.039Z,3.25
2023-03-29T03:37:40.629Z,3.05
2023-03-29T03:40:10.445Z,3.20
2023-03-29T03:42:38.897Z,3.58
2023-03-29T03:45:08.426Z,3.35
2023-03-29T03:47:37.409Z,2.92
2023-03-29T03:50:08.731Z,3.15
2023-03-29T03:52:35.793Z,3.28
2023-03-29T03:55:05.289Z,3.20
2023-03-29T03:57:33.311Z,3.28
2023-03-29T04:00:02.355Z,3.60
2023-03-29T04:02:29.725Z,3.25
2023-03-29T04:04:57.067Z,3.05
2023-03-29T04:07:27.731Z,3.55
2023-03-29T04:09:55.198Z,3.40
2023-03-29T04:12:22.300Z,3.53
2023-03-29T04:14:52.758Z,3.53
2023-03-29T04:17:20.253Z,3.60
2023-03-29T04:19:47.365Z,3.40
2023-03-29T04:22:15.615Z,3.47
2023-03-29T04:27:13.542Z,3.45
2023-03-29T04:29:43.529Z,3.55
2023-03-29T04:34:48.006Z,3.20
2023-03-29T04:37:16.378Z,3.15
2023-03-29T04:39:47.683Z,3.42
2023-03-29T04:42:15.181Z,3.65
2023-03-29T04:44:43.972Z,4.10
2023-03-29T04:47:14.809Z,3.55
2023-03-29T04:49:43.077Z,3.78
2023-03-29T04:54:40.144Z,3.88
2023-03-29T04:57:09.236Z,3.67
2023-03-29T04:59:36.558Z,3.58
2023-03-29T05:02:05.086Z,3.42
2023-03-29T05:04:36.593Z,3.53
2023-03-29T05:07:04.550Z,4.18
2023-03-29T05:09:34.312Z,3.95
2023-03-29T05:12:02.694Z,3.55
2023-03-29T05:14:33.566Z,4.13
2023-03-29T05:17:01.418Z,4.15
2023-03-29T05:19:28.441Z,3.75
2023-03-29T05:22:18.010Z,3.60
2023-03-29T05:25:46.158Z,4.25
2023-03-29T05:28:28.853Z,4.28
2023-03-29T05:31:09.487Z,4.65
2023-03-29T05:33:37.012Z,3.38
2023-03-29T05:36:06.734Z,4.07
2023-03-29T05:39:00.354Z,3.80
2023-03-29T05:41:29.936Z,3.92
2023-03-29T05:43:58.641Z,3.97
2023-03-29T05:46:35.746Z,3.95
2023-03-29T05:51:52.528Z,7.13
2023-03-29T05:54:45.630Z,4.57
2023-03-29T05:57:22.404Z,4.68
2023-03-29T06:00:24.103Z,4.65
2023-03-29T06:02:54.029Z,4.28
2023-03-29T06:05:22.718Z,4.05
2023-03-29T06:07:52.685Z,4.15
2023-03-29T06:10:26.700Z,4.38
2023-03-29T06:12:58.644Z,3.95
2023-03-29T06:15:27.470Z,4.25
2023-03-29T06:18:19.174Z,4.60
2023-03-29T06:20:49.289Z,3.97
2023-03-29T06:23:20.004Z,3.88
2023-03-29T06:25:51.754Z,4.20
2023-03-29T06:28:21.282Z,4.80
2023-03-29T06:30:50.390Z,4.93
2023-03-29T06:33:20.741Z,4.68
2023-03-29T06:35:49.644Z,5.32
2023-03-29T06:38:17.256Z,5.22
2023-03-29T06:40:45.718Z,3.95
2023-03-29T06:43:14.131Z,7.43
2023-03-29T06:45:44.838Z,6.13
2023-03-29T06:48:13.347Z,5.55
2023-03-29T06:50:54.806Z,5.28
2023-03-29T06:53:24.493Z,4.72
2023-03-29T06:55:54.235Z,4.75
2023-03-29T06:58:25.815Z,4.75
2023-03-29T07:01:04.015Z,4.80
2023-03-29T07:03:47.779Z,4.65
2023-03-29T07:08:54.720Z,6.82
2023-03-29T07:11:23.279Z,5.00
2023-03-29T07:13:51.311Z,5.53
2023-03-29T07:16:24.520Z,5.85
2023-03-29T07:18:55.269Z,5.05
2023-03-29T07:21:43.340Z,5.28
2023-03-29T07:24:11.539Z,5.07
2023-03-29T07:29:37.375Z,5.32
2023-03-29T07:34:48.716Z,4.45
2023-03-29T07:37:21.005Z,4.93
2023-03-29T07:39:52.490Z,5.13
2023-03-29T07:45:09.213Z,4.60
2023-03-29T07:47:37.526Z,6.00
2023-03-29T07:50:13.109Z,5.88
2023-03-29T07:53:10.849Z,5.85
2023-03-29T07:56:12.547Z,5.70
2023-03-29T07:58:48.344Z,5.18
2023-03-29T08:04:26.038Z,5.30
2023-03-29T08:06:59.096Z,7.97
2023-03-29T08:09:39.012Z,6.22
2023-03-29T08:12:18.173Z,5.70
2023-03-29T08:14:48.301Z,7.75
2023-03-29T08:17:17.328Z,6.68
2023-03-29T08:19:51.235Z,6.32
2023-03-29T08:22:19.834Z,5.85
2023-03-29T08:24:48.218Z,5.55
2023-03-29T08:27:17.678Z,5.90
2023-03-29T08:29:44.984Z,5.75
2023-03-29T08:32:16.546Z,7.68
2023-03-29T08:35:05.856Z,6.47
2023-03-29T08:37:33.342Z,7.00
2023-03-29T08:40:07.805Z,6.32
2023-03-29T08:42:56.752Z,6.45
2023-03-29T08:45:32.098Z,7.40
2023-03-29T08:48:11.443Z,7.18
2023-03-29T08:50:46.577Z,7.18
2023-03-29T08:53:28.066Z,7.18
2023-03-29T08:56:03.893Z,7.15
2023-03-29T09:01:37.996Z,7.50
2023-03-29T09:04:10.444Z,8.00
2023-03-29T09:12:13.928Z,10.00
2023-03-29T09:14:57.629Z,9.98
2023-03-29T09:17:44.549Z,10.18
2023-03-29T09:20:44.430Z,11.73
2023-03-29T09:23:45.082Z,9.85
2023-03-29T09:26:23.865Z,9.93
2023-03-29T09:29:07.663Z,10.43
2023-03-29T09:31:50.616Z,11.15
2023-03-29T09:34:22.897Z,11.45
2023-03-29T09:37:03.357Z,10.85
2023-03-29T09:39:32.349Z,11.10
2023-03-29T09:42:08.235Z,11.18
2023-03-29T09:44:47.875Z,12.40
2023-03-29T09:47:22.162Z,12.63
2023-03-29T09:49:52.709Z,11.07
2023-03-29T09:52:22.780Z,9.43
2023-03-29T09:54:53.572Z,10.43
2023-03-29T09:57:21.094Z,10.70
2023-03-29T09:59:54.857Z,20.27
2023-03-29T10:02:23.730Z,10.55
2023-03-29T10:04:58.915Z,11.05
2023-03-29T10:07:44.465Z,9.80
2023-03-29T10:10:22.755Z,11.27
2023-03-29T10:13:31.262Z,10.45
2023-03-29T10:16:30.117Z,10.48
2023-03-29T10:19:16.683Z,10.23
2023-03-29T10:21:54.945Z,10.63
2023-03-29T10:24:39.222Z,10.75
2023-03-29T10:27:12.123Z,10.40
2023-03-29T10:29:45.659Z,10.68
2023-03-29T10:32:27.804Z,10.00
2023-03-29T10:35:20.595Z,9.80
2023-03-29T10:38:16.095Z,10.25
2023-03-29T10:40:54.398Z,10.23
2023-03-29T10:43:56.299Z,11.60
2023-03-29T10:47:00.128Z,10.82
2023-03-29T10:52:21.963Z,11.23
2023-03-29T10:54:55.250Z,10.50
2023-03-29T10:57:43.989Z,10.68
2023-03-29T11:00:32.044Z,11.35
2023-03-29T11:03:43.849Z,9.57
2023-03-29T11:06:42.435Z,9.93
2023-03-29T11:09:31.093Z,9.20
2023-03-29T11:12:28.840Z,10.85
2023-03-29T11:15:34.598Z,9.98
2023-03-29T11:18:20.911Z,9.48
2023-03-29T11:23:46.647Z,9.30
2023-03-29T11:26:27.744Z,8.43
2023-03-29T11:29:03.163Z,7.63
2023-03-29T11:31:40.086Z,9.02
2023-03-29T11:34:31.048Z,7.60
2023-03-29T11:37:07.923Z,7.80
2023-03-29T11:40:16.984Z,7.47
2023-03-29T11:47:04.022Z,6.72
2023-03-29T11:50:54.371Z,6.57
2023-03-29T11:53:44.711Z,7.15
2023-03-29T11:56:17.859Z,9.40
2023-03-29T11:59:13.723Z,7.28
2023-03-29T12:01:50.742Z,7.28
2023-03-29T12:05:02.588Z,6.15
2023-03-29T12:07:36.240Z,6.93
2023-03-29T12:10:22.344Z,7.40
2023-03-29T12:13:00.299Z,9.48
2023-03-29T12:15:36.053Z,8.80
2023-03-29T12:18:18.654Z,10.43
2023-03-29T12:21:12.551Z,9.25
2023-03-29T12:23:43.984Z,8.13
2023-03-29T12:26:34.316Z,8.23
2023-03-29T12:29:20.981Z,8.90
2023-03-29T12:32:06.988Z,10.00
2023-03-29T12:35:07.898Z,9.82
2023-03-29T12:37:45.119Z,12.32
2023-03-29T12:40:18.430Z,11.57
2023-03-29T12:42:52.082Z,11.60
2023-03-29T12:45:33.088Z,12.23
2023-03-29T12:48:03.946Z,12.27
2023-03-29T12:50:48.861Z,12.77
2023-03-29T12:53:22.293Z,14.43
2023-03-29T12:55:55.490Z,13.10
2023-03-29T12:58:38.778Z,14.05
2023-03-29T13:01:22.812Z,14.38
2023-03-29T13:04:06.623Z,14.48
2023-03-29T13:06:52.287Z,14.07
2023-03-29T13:09:35.918Z,15.20
2023-03-29T13:12:24.822Z,15.23
2023-03-29T13:15:08.512Z,19.63
2023-03-29T13:17:51.178Z,23.52
2023-03-29T13:20:39.875Z,17.38
2023-03-29T13:23:27.226Z,16.30
2023-03-29T13:26:17.548Z,23.83
2023-03-29T13:29:12.153Z,35.42
2023-03-29T13:31:44.573Z,13.38
2023-03-29T13:34:24.763Z,11.90
2023-03-29T13:37:04.146Z,11.73
2023-03-29T13:39:36.935Z,10.02
2023-03-29T13:42:19.457Z,9.60
2023-03-29T13:44:50.372Z,9.05
2023-03-29T13:47:43.162Z,8.35
2023-03-29T13:50:20.732Z,7.85
2023-03-29T13:53:01.708Z,7.55
2023-03-29T13:55:43.778Z,8.05
2023-03-29T13:58:18.413Z,12.20
2023-03-29T14:00:51.393Z,10.25
2023-03-29T14:03:26.385Z,10.55
2023-03-29T14:06:02.684Z,11.35
2023-03-29T14:08:39.603Z,10.43
2023-03-29T14:11:12.649Z,10.50
2023-03-29T14:13:43.373Z,10.75
2023-03-29T14:16:15.034Z,10.98
2023-03-29T14:18:48.112Z,10.57
2023-03-29T14:21:17.575Z,12.05
2023-03-29T14:23:50.251Z,12.73
2023-03-29T14:26:25.186Z,11.93
2023-03-29T14:29:03.080Z,13.05
2023-03-29T14:31:32.899Z,12.77
2023-03-29T14:34:07.869Z,14.20
2023-03-29T14:36:39.246Z,12.13
2023-03-29T14:42:01.063Z,14.27
2023-03-29T14:44:32.095Z,13.10
2023-03-29T14:47:01.173Z,13.20
2023-03-29T14:49:32.297Z,13.63
2023-03-29T14:52:13.487Z,19.23
2023-03-29T14:54:44.411Z,11.32
2023-03-29T14:57:16.695Z,10.20
2023-03-29T14:59:50.449Z,11.07
2023-03-29T15:02:26.819Z,11.77
2023-03-29T15:05:04.888Z,10.38
2023-03-29T15:07:35.500Z,10.18
2023-03-29T15:10:07.903Z,9.35
2023-03-29T15:12:38.256Z,9.98
2023-03-29T15:15:33.366Z,9.85
2023-03-29T15:18:02.413Z,10.15
2023-03-29T15:20:33.804Z,8.95
2023-03-29T15:23:25.062Z,9.35
2023-03-29T15:25:56.764Z,8.93
2023-03-29T15:28:31.391Z,9.25
2023-03-29T15:33:36.210Z,7.70
2023-03-29T15:36:22.824Z,9.00
2023-03-29T15:38:51.838Z,9.18
2023-03-29T15:41:19.219Z,9.63
2023-03-29T15:43:47.131Z,9.45
2023-03-29T15:46:23.166Z,9.52
2023-03-29T15:48:50.700Z,8.82
2023-03-29T15:51:19.028Z,10.23
2023-03-29T15:53:46.178Z,9.27
2023-03-29T15:56:18.659Z,9.75
2023-03-29T15:58:47.629Z,11.88
2023-03-29T16:01:23.824Z,10.65
2023-03-29T16:03:51.516Z,11.15
2023-03-29T16:06:22.196Z,11.25
2023-03-29T16:08:49.848Z,10.77
2023-03-29T16:11:19.456Z,11.20
2023-03-29T16:13:46.614Z,11.30
2023-03-29T16:16:14.157Z,11.80
2023-03-29T16:18:41.551Z,15.05
2023-03-29T16:21:13.500Z,13.50
2023-03-29T16:23:40.879Z,12.65
2023-03-29T16:26:08.450Z,25.30
2023-03-29T16:28:38.047Z,12.90
2023-03-29T16:31:11.120Z,13.85
2023-03-29T16:33:38.781Z,14.63
2023-03-29T16:36:08.119Z,14.40
2023-03-29T16:38:35.720Z,14.48
2023-03-29T16:41:03.172Z,16.40
2023-03-29T16:43:33.752Z,15.10
2023-03-29T16:46:04.373Z,16.25
2023-03-29T16:48:35.189Z,16.70
2023-03-29T16:51:05.503Z,14.60
2023-03-29T16:53:34.803Z,15.23
2023-03-29T16:56:02.747Z,13.70
2023-03-29T16:58:33.536Z,14.45
2023-03-29T17:01:10.233Z,13.25
2023-03-29T17:03:38.771Z,13.55
2023-03-29T17:06:16.609Z,12.07
2023-03-29T17:08:44.216Z,12.63
2023-03-29T17:11:13.165Z,12.80
2023-03-29T17:13:40.481Z,12.13
2023-03-29T17:16:09.604Z,11.60
2023-03-29T17:18:40.249Z,12.50
2023-03-29T17:21:08.489Z,12.00
2023-03-29T17:23:36.055Z,12.70
2023-03-29T17:26:03.746Z,12.18
2023-03-29T17:28:31.479Z,12.18
2023-03-29T17:31:03.895Z,10.40
2023-03-29T17:33:32.737Z,48.63
2023-03-29T17:35:59.838Z,24.77
2023-03-29T17:38:28.910Z,46.90
2023-03-29T17:40:57.182Z,9.27
2023-03-29T17:43:27.386Z,9.20
2023-03-29T17:45:54.955Z,9.18
2023-03-29T17:48:23.752Z,8.02
2023-03-29T17:50:55.241Z,8.25
2023-03-29T17:53:46.498Z,8.13
2023-03-29T17:56:20.344Z,8.15
2023-03-29T17:58:54.380Z,8.50
2023-03-29T18:03:52.754Z,8.88
2023-03-29T18:06:33.002Z,8.30
2023-03-29T18:11:41.300Z,7.68
2023-03-29T18:14:21.703Z,8.82
2023-03-29T18:17:13.700Z,8.10
2023-03-29T18:20:18.580Z,40.75
2023-03-29T18:25:39.058Z,6.80
2023-03-29T18:28:18.599Z,7.40
2023-03-29T18:30:51.309Z,7.60
2023-03-29T18:33:18.742Z,7.25
2023-03-29T18:35:50.570Z,7.97
2023-03-29T18:38:21.622Z,7.57
2023-03-29T18:40:50.759Z,7.22
2023-03-29T18:43:18.188Z,6.63
2023-03-29T18:45:45.689Z,7.22
2023-03-29T18:48:19.876Z,7.65
2023-03-29T18:50:51.461Z,8.05
2023-03-29T18:53:22.447Z,7.65
2023-03-29T18:55:51.968Z,7.40
2023-03-29T18:58:24.127Z,7.38
2023-03-29T19:00:54.804Z,8.02
2023-03-29T19:03:22.708Z,10.15
2023-03-29T19:05:55.537Z,24.17
2023-03-29T19:08:26.791Z,20.60
2023-03-29T19:11:00.771Z,8.25
2023-03-29T19:13:28.250Z,7.38
2023-03-29T19:15:56.722Z,7.95
2023-03-29T19:18:23.801Z,7.97
2023-03-29T19:20:52.676Z,8.15
2023-03-29T19:23:21.377Z,7.53
2023-03-29T19:25:54.247Z,8.50
2023-03-29T19:28:21.795Z,7.75
2023-03-29T19:30:49.806Z,7.55
2023-03-29T19:33:17.321Z,7.18
2023-03-29T19:35:44.728Z,7.38
2023-03-29T19:38:12.646Z,7.05
2023-03-29T19:40:39.667Z,8.52
2023-03-29T19:43:09.212Z,7.95
2023-03-29T19:45:36.413Z,7.70
2023-03-29T19:48:05.410Z,7.65
2023-03-29T19:50:32.590Z,7.07
2023-03-29T19:53:04.139Z,7.22
2023-03-29T19:55:31.175Z,7.15
2023-03-29T19:58:01.399Z,7.93
2023-03-29T20:00:39.798Z,7.78
2023-03-29T20:03:11.296Z,8.00
2023-03-29T20:05:39.286Z,7.50
2023-03-29T20:08:07.152Z,8.25
2023-03-29T20:10:35.679Z,7.97
2023-03-29T20:13:03.812Z,7.57
2023-03-29T20:15:35.464Z,7.63
2023-03-29T20:18:08.153Z,8.68
2023-03-29T20:20:35.774Z,7.63
2023-03-29T20:23:05.229Z,8.07
2023-03-29T20:25:33.173Z,7.80
2023-03-29T20:28:04.018Z,7.78
2023-03-29T20:30:36.378Z,7.10
2023-03-29T20:33:04.862Z,7.30
2023-03-29T20:35:32.252Z,7.05
2023-03-29T20:37:59.582Z,6.63
2023-03-29T20:40:28.837Z,7.20
2023-03-29T20:42:56.826Z,7.45
2023-03-29T20:48:04.553Z,6.43
2023-03-29T20:50:32.200Z,5.97
2023-03-29T20:53:03.819Z,7.10
2023-03-29T20:55:35.234Z,6.57
2023-03-29T20:58:02.686Z,6.63
2023-03-29T21:00:34.013Z,6.88
2023-03-29T21:03:09.369Z,7.72
2023-03-29T21:05:37.045Z,60.70
2023-03-29T21:08:04.506Z,19.95
2023-03-29T21:10:31.947Z,32.47
2023-03-29T21:13:00.885Z,25.38
2023-03-29T21:15:32.178Z,6.22
2023-03-29T21:17:59.863Z,6.05
2023-03-29T21:20:28.734Z,6.85
2023-03-29T21:22:58.154Z,6.72
2023-03-29T21:25:25.605Z,6.30
2023-03-29T21:27:55.459Z,5.88
2023-03-29T21:30:22.813Z,6.80
2023-03-29T21:32:50.133Z,6.53
2023-03-29T21:35:17.805Z,7.25
2023-03-29T21:37:47.001Z,6.90
2023-03-29T21:40:20.113Z,5.75
2023-03-29T21:42:47.949Z,6.75
2023-03-29T21:45:15.201Z,6.40
2023-03-29T21:47:42.523Z,5.60
2023-03-29T21:50:13.833Z,6.30
2023-03-29T21:52:41.471Z,5.85
2023-03-29T21:55:10.209Z,6.40
2023-03-29T21:57:37.381Z,5.63
2023-03-29T22:00:11.158Z,6.05
2023-03-29T22:02:39.202Z,5.22
2023-03-29T22:05:07.184Z,6.00
2023-03-29T22:07:38.818Z,5.85
2023-03-29T22:10:12.511Z,5.65
2023-03-29T22:12:41.374Z,5.40
2023-03-29T22:15:13.604Z,5.15
2023-03-29T22:17:43.039Z,5.25
2023-03-29T22:20:13.333Z,5.07
2023-03-29T22:22:44.900Z,4.45
2023-03-29T22:25:16.154Z,4.90
2023-03-29T22:27:44.235Z,4.88
2023-03-29T22:32:39.050Z,5.07
2023-03-29T22:35:09.027Z,5.20
2023-03-29T22:37:40.626Z,4.72
2023-03-29T22:40:10.310Z,4.30
2023-03-29T22:42:39.094Z,4.55
2023-03-29T22:45:07.563Z,4.50
2023-03-29T22:47:35.651Z,4.72
2023-03-29T22:52:31.677Z,4.15
2023-03-29T22:54:58.833Z,5.15
2023-03-29T22:57:26.170Z,4.00
2023-03-29T22:59:54.882Z,4.10
2023-03-29T23:02:21.851Z,4.22
2023-03-29T23:04:49.514Z,4.18
2023-03-29T23:07:17.510Z,4.30
2023-03-29T23:09:45.659Z,4.57
2023-03-29T23:12:16.130Z,4.13
2023-03-29T23:14:45.300Z,4.32
2023-03-29T23:17:13.916Z,4.97
2023-03-29T23:19:41.694Z,3.63
2023-03-29T23:22:28.810Z,4.00
2023-03-29T23:24:56.250Z,4.20
2023-03-29T23:27:23.703Z,4.05
2023-03-29T23:29:51.092Z,3.70
2023-03-29T23:32:21.060Z,4.40
2023-03-29T23:34:48.428Z,4.03
2023-03-29T23:37:15.569Z,4.50
2023-03-29T23:39:43.702Z,3.10
2023-03-29T23:42:11.122Z,4.05
2023-03-29T23:44:38.647Z,3.97
2023-03-29T23:47:06.280Z,3.38
2023-03-29T23:49:36.297Z,3.65
2023-03-29T23:52:06.129Z,3.03
2023-03-29T23:54:33.643Z,2.83
2023-03-29T23:57:02.793Z,2.60
2023-03-29T23:59:37.884Z,2.90
